Time;durP1;ratioP1;P1;durP2;ratioP2;P2;SDS_P1;SDS_P2;PMS_P1;PMS_P2;Temp;Humidity;BMP_temperature;BMP_pressure;BME280_temperature;BME280_humidity;BME280_pressure;Samples;Min_cycle;Max_cycle;Signal;HPM_P1;HPM_P2
2023/01/10 00:02:02;;;;;;;1.23;0.82;;;;;;;;;;5011024;28;20555;-74
2023/01/10 00:04:29;;;;;;;1.65;0.85;;;;;;;;;;5011710;28;20022;-74
2023/01/10 00:06:55;;;;;;;0.82;0.80;;;;;;;;;;5008578;28;20054;-74
2023/01/10 00:09:21;;;;;;;2.05;1.10;;;;;;;;;;5009716;28;20104;-74
2023/01/10 00:14:34;;;;;;;2.80;0.93;;;;;;;;;;5008151;28;20092;-74
2023/01/10 00:17:00;;;;;;;2.80;1.00;;;;;;;;;;5010866;28;20489;-73
2023/01/10 00:19:26;;;;;;;1.67;1.20;;;;;;;;;;5010796;28;20080;-73
2023/01/10 00:22:04;;;;;;;1.00;0.70;;;;;;;;;;5012986;28;20026;-74
2023/01/10 00:24:30;;;;;;;1.30;0.90;;;;;;;;;;5008263;28;20061;-73
2023/01/10 00:26:56;;;;;;;1.40;0.93;;;;;;;;;;5010434;28;20133;-74
2023/01/10 00:29:26;;;;;;;3.20;0.85;;;;;;;;;;5012127;28;20068;-73
2023/01/10 00:31:52;;;;;;;1.30;0.85;;;;;;;;;;5010098;28;20087;-74
2023/01/10 00:34:18;;;;;;;1.00;0.80;;;;;;;;;;5009252;28;20030;-74
2023/01/10 00:36:46;;;;;;;1.63;1.15;;;;;;;;;;5011817;28;20025;-74
2023/01/10 00:39:13;;;;;;;1.48;1.10;;;;;;;;;;5009953;28;20595;-74
2023/01/10 00:44:24;;;;;;;2.75;1.00;;;;;;;;;;5009458;28;20104;-74
2023/01/10 00:46:50;;;;;;;1.48;0.70;;;;;;;;;;5009517;28;20038;-74
2023/01/10 00:49:16;;;;;;;1.00;0.85;;;;;;;;;;5008399;28;20080;-74
2023/01/10 00:51:43;;;;;;;2.10;0.80;;;;;;;;;;5009114;28;20030;-74
2023/01/10 00:54:09;;;;;;;1.88;1.20;;;;;;;;;;5007987;28;20045;-74
2023/01/10 00:56:35;;;;;;;1.02;0.77;;;;;;;;;;5010566;28;20106;-74
2023/01/10 00:59:01;;;;;;;3.13;1.23;;;;;;;;;;5010301;28;20037;-75
2023/01/10 01:01:27;;;;;;;0.50;0.50;;;;;;;;;;5006449;28;20115;-75
2023/01/10 01:03:53;;;;;;;3.63;0.90;;;;;;;;;;5010930;28;20026;-75
2023/01/10 01:06:19;;;;;;;1.20;0.90;;;;;;;;;;5011642;28;20112;-75
2023/01/10 01:08:45;;;;;;;1.20;0.85;;;;;;;;;;5008870;28;20069;-74
2023/01/10 01:11:11;;;;;;;1.75;0.98;;;;;;;;;;5011139;28;20389;-74
2023/01/10 01:13:37;;;;;;;1.63;0.90;;;;;;;;;;5007745;28;20473;-74
2023/01/10 01:16:03;;;;;;;1.13;1.02;;;;;;;;;;5005626;28;20555;-74
2023/01/10 01:18:30;;;;;;;1.38;0.85;;;;;;;;;;5010456;28;20469;-74
2023/01/10 01:20:59;;;;;;;1.27;0.90;;;;;;;;;;5008060;28;20025;-74
2023/01/10 01:23:25;;;;;;;1.58;1.02;;;;;;;;;;5009657;28;20105;-74
2023/01/10 01:25:52;;;;;;;1.17;1.00;;;;;;;;;;5008820;28;20042;-75
2023/01/10 01:28:18;;;;;;;1.35;0.85;;;;;;;;;;5009539;28;20026;-75
2023/01/10 01:30:44;;;;;;;0.90;0.80;;;;;;;;;;5010033;28;20131;-74
2023/01/10 01:33:10;;;;;;;1.80;0.90;;;;;;;;;;5010517;28;20033;-74
2023/01/10 01:35:36;;;;;;;1.20;0.98;;;;;;;;;;5008313;28;20096;-75
2023/01/10 01:38:05;;;;;;;1.30;0.70;;;;;;;;;;5008624;28;20538;-75
2023/01/10 01:40:31;;;;;;;1.15;0.90;;;;;;;;;;5009959;28;20088;-74
2023/01/10 01:42:57;;;;;;;1.60;1.20;;;;;;;;;;5007284;28;20084;-74
2023/01/10 01:45:23;;;;;;;1.42;0.80;;;;;;;;;;5008243;28;20045;-74
2023/01/10 01:47:55;;;;;;;0.90;0.80;;;;;;;;;;5005645;28;20039;-73
2023/01/10 01:50:24;;;;;;;1.38;0.90;;;;;;;;;;5009824;28;20022;-74
2023/01/10 01:52:53;;;;;;;2.35;1.00;;;;;;;;;;5009615;28;20026;-73
2023/01/10 01:55:21;;;;;;;1.52;0.93;;;;;;;;;;5009930;28;20108;-73
2023/01/10 01:57:49;;;;;;;1.00;0.90;;;;;;;;;;5005958;28;20034;-74
2023/01/10 02:00:15;;;;;;;1.67;0.65;;;;;;;;;;5008920;28;20050;-74
2023/01/10 02:02:56;;;;;;;1.60;0.80;;;;;;;;;;5009982;28;20036;-74
2023/01/10 02:05:22;;;;;;;1.03;0.87;;;;;;;;;;5005587;28;20028;-73
2023/01/10 02:07:51;;;;;;;1.20;0.85;;;;;;;;;;5007067;28;20281;-75
2023/01/10 02:10:27;;;;;;;1.23;0.80;;;;;;;;;;5008515;28;20240;-73
2023/01/10 02:12:54;;;;;;;0.80;0.80;;;;;;;;;;5009538;28;20038;-73
2023/01/10 02:15:20;;;;;;;1.10;0.90;;;;;;;;;;5005386;28;20025;-74
2023/01/10 02:17:51;;;;;;;0.65;0.65;;;;;;;;;;5005713;28;20124;-74
2023/01/10 02:20:17;;;;;;;1.65;0.90;;;;;;;;;;5010054;28;20026;-74
2023/01/10 02:23:02;;;;;;;0.85;0.82;;;;;;;;;;5008994;28;20037;-75
2023/01/10 02:25:47;;;;;;;1.77;0.70;;;;;;;;;;5006946;28;20087;-73
2023/01/10 02:28:28;;;;;;;0.70;0.70;;;;;;;;;;5006072;28;20034;-73
2023/01/10 02:30:54;;;;;;;1.08;0.80;;;;;;;;;;5002906;28;20053;-73
2023/01/10 02:33:26;;;;;;;0.60;0.60;;;;;;;;;;5007942;28;20048;-73
2023/01/10 02:35:53;;;;;;;1.35;0.85;;;;;;;;;;5007961;28;20042;-74
2023/01/10 02:38:28;;;;;;;0.60;0.60;;;;;;;;;;5006820;28;20380;-74
2023/01/10 02:40:54;;;;;;;0.88;0.75;;;;;;;;;;5008596;28;20041;-74
2023/01/10 02:43:22;;;;;;;0.70;0.70;;;;;;;;;;5007983;28;20038;-74
2023/01/10 02:45:54;;;;;;;0.75;0.70;;;;;;;;;;5007127;28;20069;-74
2023/01/10 02:48:21;;;;;;;1.15;0.65;;;;;;;;;;5007997;28;20096;-73
2023/01/10 02:50:47;;;;;;;3.10;0.90;;;;;;;;;;5006549;28;20420;-73
2023/01/10 02:53:21;;;;;;;1.15;0.80;;;;;;;;;;5008680;28;20034;-73
2023/01/10 02:55:58;;;;;;;0.82;0.73;;;;;;;;;;5007213;28;20451;-74
2023/01/10 02:58:46;;;;;;;1.17;0.90;;;;;;;;;;5007544;28;20035;-74
2023/01/10 03:01:20;;;;;;;0.80;0.73;;;;;;;;;;5002523;28;20084;-73
2023/01/10 03:03:51;;;;;;;1.58;0.70;;;;;;;;;;5008540;28;20029;-74
2023/01/10 03:06:23;;;;;;;0.73;0.73;;;;;;;;;;5006004;28;20030;-74
2023/01/10 03:08:58;;;;;;;2.45;0.80;;;;;;;;;;5008071;28;20034;-73
2023/01/10 03:11:39;;;;;;;0.77;0.77;;;;;;;;;;5005687;28;20034;-73
2023/01/10 03:14:31;;;;;;;2.30;0.80;;;;;;;;;;5007472;28;20392;-73
2023/01/10 03:16:59;;;;;;;1.55;0.80;;;;;;;;;;5006132;28;20038;-74
2023/01/10 03:19:28;;;;;;;1.13;0.70;;;;;;;;;;5009070;28;20048;-73
2023/01/10 03:21:56;;;;;;;0.60;0.60;;;;;;;;;;5007959;28;20018;-74
2023/01/10 03:24:31;;;;;;;1.70;1.02;;;;;;;;;;5005825;28;20520;-75
2023/01/10 03:27:01;;;;;;;2.00;0.68;;;;;;;;;;5007326;28;20390;-73
2023/01/10 03:29:36;;;;;;;1.63;0.80;;;;;;;;;;5004967;28;20030;-74
2023/01/10 03:32:05;;;;;;;0.70;0.70;;;;;;;;;;5005404;28;20030;-74
2023/01/10 03:34:31;;;;;;;0.52;0.52;;;;;;;;;;5007533;28;20048;-74
2023/01/10 03:37:24;;;;;;;0.70;0.70;;;;;;;;;;5005671;28;20381;-74
2023/01/10 03:39:53;;;;;;;0.80;0.80;;;;;;;;;;4976805;28;20057;-72
2023/01/10 03:42:27;;;;;;;0.70;0.60;;;;;;;;;;5005885;28;20044;-73
2023/01/10 03:45:08;;;;;;;0.82;0.82;;;;;;;;;;5004317;28;20104;-74
2023/01/10 03:47:45;;;;;;;1.83;0.65;;;;;;;;;;5003426;28;20065;-74
2023/01/10 03:50:14;;;;;;;0.90;0.80;;;;;;;;;;5002609;28;20030;-74
2023/01/10 03:52:41;;;;;;;1.25;0.68;;;;;;;;;;5002510;28;20044;-73
2023/01/10 03:55:09;;;;;;;0.98;0.80;;;;;;;;;;5006786;28;20052;-74
2023/01/10 03:57:35;;;;;;;0.73;0.70;;;;;;;;;;5008256;28;20033;-74
2023/01/10 04:00:01;;;;;;;0.73;0.65;;;;;;;;;;5007643;28;20374;-74
2023/01/10 04:02:28;;;;;;;1.85;1.17;;;;;;;;;;5005735;28;20033;-74
2023/01/10 04:04:54;;;;;;;1.02;0.82;;;;;;;;;;5006956;28;20026;-74
2023/01/10 04:07:20;;;;;;;1.08;0.60;;;;;;;;;;5009332;28;20408;-73
2023/01/10 04:09:46;;;;;;;0.90;0.65;;;;;;;;;;5007155;28;20041;-73
2023/01/10 04:12:12;;;;;;;1.00;0.70;;;;;;;;;;5009093;28;20026;-73
2023/01/10 04:14:38;;;;;;;2.88;0.82;;;;;;;;;;5004440;28;20038;-73
2023/01/10 04:17:04;;;;;;;1.08;0.80;;;;;;;;;;5007720;28;20385;-73
2023/01/10 04:19:31;;;;;;;0.80;0.70;;;;;;;;;;5005104;28;20469;-74
2023/01/10 04:21:57;;;;;;;1.63;0.80;;;;;;;;;;5005253;28;20030;-74
2023/01/10 04:24:25;;;;;;;0.60;0.60;;;;;;;;;;5006472;28;20085;-75
2023/01/10 04:26:51;;;;;;;1.52;0.70;;;;;;;;;;5000856;28;20133;-74
2023/01/10 04:29:17;;;;;;;1.95;0.80;;;;;;;;;;5007035;28;20117;-74
2023/01/10 04:31:43;;;;;;;1.40;0.80;;;;;;;;;;5005642;28;20034;-74
2023/01/10 04:34:09;;;;;;;1.30;0.80;;;;;;;;;;5003045;28;20026;-74
2023/01/10 04:36:36;;;;;;;0.90;0.90;;;;;;;;;;5008291;28;20362;-73
2023/01/10 04:39:02;;;;;;;2.90;0.77;;;;;;;;;;5005842;28;20057;-74
2023/01/10 04:41:28;;;;;;;1.15;0.70;;;;;;;;;;5013898;28;20026;-74
2023/01/10 04:43:54;;;;;;;2.53;1.13;;;;;;;;;;5011175;28;20033;-73
2023/01/10 04:46:20;;;;;;;1.30;0.82;;;;;;;;;;5011291;28;20033;-74
2023/01/10 04:48:46;;;;;;;1.45;1.05;;;;;;;;;;5006991;28;20038;-73
2023/01/10 04:51:12;;;;;;;1.35;0.98;;;;;;;;;;5010572;28;20026;-73
2023/01/10 04:53:38;;;;;;;1.58;0.90;;;;;;;;;;5011166;28;20036;-74
2023/01/10 04:56:05;;;;;;;1.60;1.00;;;;;;;;;;5007956;28;20033;-74
2023/01/10 04:58:40;;;;;;;1.23;0.95;;;;;;;;;;5020494;28;20105;-74
2023/01/10 05:01:07;;;;;;;4.20;1.10;;;;;;;;;;5011675;28;20032;-73
2023/01/10 05:03:36;;;;;;;1.25;1.00;;;;;;;;;;5012163;28;20018;-74
2023/01/10 05:06:05;;;;;;;1.20;1.10;;;;;;;;;;5010770;28;20033;-74
2023/01/10 05:08:31;;;;;;;1.52;0.77;;;;;;;;;;5009832;28;20030;-74
2023/01/10 05:10:57;;;;;;;1.13;1.00;;;;;;;;;;5008202;28;20076;-75
2023/01/10 05:13:24;;;;;;;1.77;0.98;;;;;;;;;;5007002;28;20033;-73
2023/01/10 05:15:50;;;;;;;1.98;0.75;;;;;;;;;;5008642;28;20072;-73
2023/01/10 05:18:19;;;;;;;1.30;0.80;;;;;;;;;;5010227;28;20057;-81
2023/01/10 05:20:45;;;;;;;0.65;0.65;;;;;;;;;;5006908;28;20072;-75
2023/01/10 05:23:11;;;;;;;1.08;0.68;;;;;;;;;;5010123;28;20030;-74
2023/01/10 05:25:37;;;;;;;0.80;0.80;;;;;;;;;;5010616;28;20685;-74
2023/01/10 05:28:03;;;;;;;2.05;0.75;;;;;;;;;;5010323;28;20702;-75
2023/01/10 05:30:29;;;;;;;2.00;1.10;;;;;;;;;;5008676;28;20030;-74
2023/01/10 05:32:54;;;;;;;1.98;0.95;;;;;;;;;;5000538;28;20053;-75
2023/01/10 05:35:20;;;;;;;0.80;0.80;;;;;;;;;;5010933;28;20030;-75
2023/01/10 05:37:46;;;;;;;0.90;0.73;;;;;;;;;;5010418;28;20029;-75
2023/01/10 05:40:12;;;;;;;4.80;1.08;;;;;;;;;;5010162;28;20041;-75
2023/01/10 05:42:38;;;;;;;1.77;0.90;;;;;;;;;;5008570;28;20032;-75
2023/01/10 05:45:05;;;;;;;1.83;0.85;;;;;;;;;;5009674;28;20513;-73
2023/01/10 05:47:30;;;;;;;1.70;1.08;;;;;;;;;;5000783;28;20040;-73
2023/01/10 05:49:56;;;;;;;1.25;1.00;;;;;;;;;;5009548;28;20037;-74
2023/01/10 05:52:50;;;;;;;0.93;0.80;;;;;;;;;;5006530;28;20025;-76
2023/01/10 05:55:16;;;;;;;3.60;1.00;;;;;;;;;;5006922;28;20034;-74
2023/01/10 05:57:42;;;;;;;1.60;0.90;;;;;;;;;;5007899;28;20263;-75
2023/01/10 06:00:08;;;;;;;2.28;0.70;;;;;;;;;;5019161;28;20076;-75
2023/01/10 06:02:34;;;;;;;3.60;1.08;;;;;;;;;;5008732;28;20081;-75
2023/01/10 06:05:00;;;;;;;1.70;1.00;;;;;;;;;;5008228;28;20112;-76
2023/01/10 06:07:26;;;;;;;1.05;0.88;;;;;;;;;;5002727;28;20030;-74
2023/01/10 06:09:52;;;;;;;2.25;0.73;;;;;;;;;;5007563;28;20025;-74
2023/01/10 06:12:18;;;;;;;2.17;0.85;;;;;;;;;;5008817;28;20034;-74
2023/01/10 06:14:44;;;;;;;0.88;0.82;;;;;;;;;;5007549;28;20034;-73
2023/01/10 06:17:11;;;;;;;2.90;1.10;;;;;;;;;;5006874;28;20042;-74
2023/01/10 06:19:37;;;;;;;1.98;1.02;;;;;;;;;;5006203;28;20044;-73
2023/01/10 06:22:03;;;;;;;1.15;0.88;;;;;;;;;;5005817;28;20033;-74
2023/01/10 06:24:29;;;;;;;1.25;0.90;;;;;;;;;;5007048;28;20032;-75
2023/01/10 06:26:55;;;;;;;1.70;0.90;;;;;;;;;;5007615;28;20132;-74
2023/01/10 06:29:21;;;;;;;1.48;0.90;;;;;;;;;;5010117;28;20411;-74
2023/01/10 06:31:47;;;;;;;1.60;0.80;;;;;;;;;;5008499;28;20026;-74
2023/01/10 06:34:13;;;;;;;1.45;0.95;;;;;;;;;;5007866;28;20025;-73
2023/01/10 06:36:39;;;;;;;2.58;0.98;;;;;;;;;;5008361;28;20800;-74
2023/01/10 06:39:04;;;;;;;1.17;0.75;;;;;;;;;;5008814;28;20022;-74
2023/01/10 06:41:30;;;;;;;6.47;1.10;;;;;;;;;;5009180;28;20030;-74
2023/01/10 06:43:56;;;;;;;2.25;1.25;;;;;;;;;;5007734;28;20073;-73
2023/01/10 06:46:22;;;;;;;2.60;0.90;;;;;;;;;;5009091;28;20038;-73
2023/01/10 06:48:51;;;;;;;1.42;1.00;;;;;;;;;;5008249;28;20038;-74
2023/01/10 06:51:17;;;;;;;2.25;1.15;;;;;;;;;;5008446;28;20057;-73
2023/01/10 06:53:43;;;;;;;3.08;1.00;;;;;;;;;;5005557;28;20425;-74
2023/01/10 06:56:09;;;;;;;1.52;1.08;;;;;;;;;;5005679;28;20476;-73
2023/01/10 06:58:37;;;;;;;1.45;1.00;;;;;;;;;;5005608;28;20026;-73
2023/01/10 07:01:04;;;;;;;2.05;1.10;;;;;;;;;;5005060;28;20025;-73
2023/01/10 07:03:30;;;;;;;1.10;0.70;;;;;;;;;;5009458;28;20084;-73
2023/01/10 07:05:59;;;;;;;1.90;0.90;;;;;;;;;;5009766;28;20029;-74
2023/01/10 07:08:25;;;;;;;1.67;1.00;;;;;;;;;;5004490;28;20030;-74
2023/01/10 07:10:51;;;;;;;1.30;0.82;;;;;;;;;;5008647;28;20037;-74
2023/01/10 07:13:17;;;;;;;0.75;0.75;;;;;;;;;;5008739;28;20037;-74
2023/01/10 07:15:43;;;;;;;3.55;1.10;;;;;;;;;;5009421;28;20465;-73
2023/01/10 07:18:09;;;;;;;2.55;1.05;;;;;;;;;;5008079;28;20028;-74
2023/01/10 07:20:35;;;;;;;1.33;0.88;;;;;;;;;;5009816;28;20362;-73
2023/01/10 07:23:01;;;;;;;1.50;0.93;;;;;;;;;;5001591;28;20436;-74
2023/01/10 07:25:28;;;;;;;1.30;1.00;;;;;;;;;;5005315;28;20399;-74
2023/01/10 07:27:54;;;;;;;2.80;0.90;;;;;;;;;;5006156;28;20072;-73
2023/01/10 07:33:18;;;;;;;1.85;1.20;;;;;;;;;;4998584;28;20116;-73
2023/01/10 07:35:44;;;;;;;1.65;1.08;;;;;;;;;;5009244;28;20053;-73
2023/01/10 07:38:10;;;;;;;1.95;1.00;;;;;;;;;;5006947;28;20041;-74
2023/01/10 07:40:36;;;;;;;5.15;1.30;;;;;;;;;;5008557;28;20080;-72
2023/01/10 07:43:02;;;;;;;1.17;0.98;;;;;;;;;;5008260;28;20270;-74
2023/01/10 07:45:31;;;;;;;1.55;1.02;;;;;;;;;;5006471;28;20087;-73
2023/01/10 07:47:57;;;;;;;1.17;0.95;;;;;;;;;;5008382;28;20034;-74
2023/01/10 07:50:23;;;;;;;1.92;1.05;;;;;;;;;;4999881;28;20140;-73
2023/01/10 07:52:49;;;;;;;2.83;0.90;;;;;;;;;;5004281;28;20496;-75
2023/01/10 07:55:16;;;;;;;2.55;1.25;;;;;;;;;;5006196;28;20030;-73
2023/01/10 07:57:42;;;;;;;1.10;1.00;;;;;;;;;;5006894;28;20473;-74
2023/01/10 08:00:08;;;;;;;1.65;1.00;;;;;;;;;;5007807;28;20076;-75
2023/01/10 08:02:34;;;;;;;1.98;1.00;;;;;;;;;;5003582;28;20418;-74
2023/01/10 08:05:00;;;;;;;3.22;1.15;;;;;;;;;;5001569;28;20026;-73
2023/01/10 08:07:29;;;;;;;1.88;1.00;;;;;;;;;;5007806;28;20030;-74
2023/01/10 08:09:55;;;;;;;1.00;0.82;;;;;;;;;;5010415;28;20036;-73
2023/01/10 08:12:23;;;;;;;1.25;0.70;;;;;;;;;;5010318;28;20021;-74
2023/01/10 08:14:50;;;;;;;1.83;0.98;;;;;;;;;;5008094;28;20029;-73
2023/01/10 08:17:16;;;;;;;3.15;0.95;;;;;;;;;;5010774;28;20519;-73
2023/01/10 08:19:42;;;;;;;2.55;1.10;;;;;;;;;;5006806;28;20034;-74
2023/01/10 08:22:08;;;;;;;0.88;0.70;;;;;;;;;;5009132;28;20029;-73
2023/01/10 08:24:34;;;;;;;0.80;0.60;;;;;;;;;;5009511;28;20061;-74
2023/01/10 08:27:03;;;;;;;1.52;1.00;;;;;;;;;;5009736;28;20485;-73
2023/01/10 08:29:29;;;;;;;2.20;1.00;;;;;;;;;;5011409;28;20042;-74
2023/01/10 08:31:55;;;;;;;1.77;0.98;;;;;;;;;;5009969;28;20370;-74
2023/01/10 08:34:21;;;;;;;3.47;1.05;;;;;;;;;;5007953;28;20025;-75
2023/01/10 08:36:51;;;;;;;1.88;0.90;;;;;;;;;;5009444;28;20029;-74
2023/01/10 08:39:17;;;;;;;2.30;1.50;;;;;;;;;;5009524;28;20026;-74
2023/01/10 08:41:43;;;;;;;1.45;1.10;;;;;;;;;;5009826;28;20042;-75
2023/01/10 08:44:11;;;;;;;1.48;0.95;;;;;;;;;;5012243;28;20022;-77
2023/01/10 08:46:37;;;;;;;1.60;1.10;;;;;;;;;;5008883;28;20544;-75
2023/01/10 08:49:03;;;;;;;0.77;0.70;;;;;;;;;;5009514;28;20636;-73
2023/01/10 08:51:29;;;;;;;0.77;0.70;;;;;;;;;;5007184;28;20507;-73
2023/01/10 08:53:55;;;;;;;2.22;1.05;;;;;;;;;;5009234;28;20034;-74
2023/01/10 08:56:21;;;;;;;1.45;0.85;;;;;;;;;;5009983;28;20042;-73
2023/01/10 08:58:47;;;;;;;1.20;0.82;;;;;;;;;;5004925;28;20026;-73
2023/01/10 09:01:13;;;;;;;2.45;1.08;;;;;;;;;;5006239;28;20496;-74
2023/01/10 09:03:39;;;;;;;1.88;1.35;;;;;;;;;;5009437;28;20323;-74
2023/01/10 09:06:07;;;;;;;2.45;1.02;;;;;;;;;;5008457;28;20033;-74
2023/01/10 09:08:33;;;;;;;1.23;0.80;;;;;;;;;;5005581;28;20116;-74
2023/01/10 09:10:59;;;;;;;2.70;1.20;;;;;;;;;;5010656;28;20026;-74
2023/01/10 09:13:25;;;;;;;2.08;1.38;;;;;;;;;;5011246;28;20026;-74
2023/01/10 09:15:51;;;;;;;3.53;1.40;;;;;;;;;;5008733;28;20618;-79
2023/01/10 09:18:17;;;;;;;3.70;1.70;;;;;;;;;;5006855;28;20053;-74
2023/01/10 09:20:44;;;;;;;2.78;1.65;;;;;;;;;;5007293;28;20036;-74
2023/01/10 09:23:11;;;;;;;1.92;1.20;;;;;;;;;;5007499;28;20030;-74
2023/01/10 09:25:38;;;;;;;2.13;1.38;;;;;;;;;;5007037;28;20732;-74
2023/01/10 09:28:04;;;;;;;2.88;1.17;;;;;;;;;;5008808;28;20064;-73
2023/01/10 09:30:31;;;;;;;3.63;1.70;;;;;;;;;;5010740;28;20029;-72
2023/01/10 09:32:57;;;;;;;2.17;1.20;;;;;;;;;;5004827;28;20025;-71
2023/01/10 09:35:25;;;;;;;2.28;1.30;;;;;;;;;;5010406;28;20038;-71
2023/01/10 09:37:59;;;;;;;2.15;1.05;;;;;;;;;;5008818;28;20062;-71
2023/01/10 09:40:33;;;;;;;3.50;1.20;;;;;;;;;;5008633;28;20076;-71
2023/01/10 09:43:12;;;;;;;1.80;1.30;;;;;;;;;;5006716;28;20026;-72
2023/01/10 09:45:56;;;;;;;3.08;1.20;;;;;;;;;;5004886;28;20037;-77
2023/01/10 09:48:37;;;;;;;1.48;1.20;;;;;;;;;;5010784;28;20423;-76
2023/01/10 09:51:19;;;;;;;2.20;1.30;;;;;;;;;;5008193;28;20080;-76
2023/01/10 09:54:05;;;;;;;1.25;0.95;;;;;;;;;;5008747;28;20651;-77
2023/01/10 09:56:50;;;;;;;1.85;1.00;;;;;;;;;;5011854;28;20128;-76
2023/01/10 09:59:25;;;;;;;3.38;0.95;;;;;;;;;;5009186;28;20049;-76
2023/01/10 10:02:01;;;;;;;1.15;0.80;;;;;;;;;;5009947;28;20079;-76
2023/01/10 10:04:32;;;;;;;1.88;0.90;;;;;;;;;;5009539;28;20026;-76
2023/01/10 10:06:58;;;;;;;1.00;0.90;;;;;;;;;;5010937;28;20034;-76
2023/01/10 10:09:25;;;;;;;2.08;0.93;;;;;;;;;;5011781;28;20030;-76
2023/01/10 10:11:56;;;;;;;2.20;0.90;;;;;;;;;;5009372;28;20161;-76
2023/01/10 10:14:22;;;;;;;1.63;1.10;;;;;;;;;;4999512;28;21119;-76
2023/01/10 10:17:00;;;;;;;3.65;1.10;;;;;;;;;;5010858;28;20045;-76
2023/01/10 10:19:44;;;;;;;0.88;0.82;;;;;;;;;;5010740;28;20033;-76
2023/01/10 10:22:26;;;;;;;2.83;1.10;;;;;;;;;;5009746;28;20041;-77
2023/01/10 10:24:52;;;;;;;;;;;;;;;;;;5005699;28;20061;-77
2023/01/10 10:27:22;;;;;;;2.03;1.17;;;;;;;;;;5010963;28;20003;-77
2023/01/10 10:30:11;;;;;;;1.63;1.02;;;;;;;;;;5010108;28;20061;-77
2023/01/10 10:32:46;;;;;;;1.63;0.98;;;;;;;;;;5010152;28;20029;-77
2023/01/10 10:35:14;;;;;;;1.58;1.10;;;;;;;;;;5004031;28;20409;-75
2023/01/10 10:37:42;;;;;;;1.65;0.80;;;;;;;;;;5010116;28;20038;-77
2023/01/10 10:40:17;;;;;;;3.42;1.20;;;;;;;;;;4990873;28;20030;-77
2023/01/10 10:42:49;;;;;;;3.05;1.00;;;;;;;;;;5009508;28;20022;-77
2023/01/10 10:45:29;;;;;;;2.83;0.90;;;;;;;;;;5003191;28;20029;-76
2023/01/10 10:47:58;;;;;;;1.80;1.00;;;;;;;;;;5010339;28;20045;-77
2023/01/10 10:50:32;;;;;;;1.80;0.98;;;;;;;;;;5010485;28;20106;-77
2023/01/10 10:53:00;;;;;;;2.10;1.27;;;;;;;;;;5009496;28;20040;-77
2023/01/10 10:55:30;;;;;;;2.60;1.75;;;;;;;;;;5004278;28;20091;-77
2023/01/10 10:57:56;;;;;;;0.70;0.70;;;;;;;;;;5008995;28;20021;-77
2023/01/10 11:00:23;;;;;;;2.72;0.98;;;;;;;;;;5009739;28;20060;-77
2023/01/10 11:02:54;;;;;;;3.60;1.20;;;;;;;;;;5011240;28;20114;-77
2023/01/10 11:05:21;;;;;;;1.67;0.90;;;;;;;;;;5007260;28;20442;-77
2023/01/10 11:07:48;;;;;;;2.83;1.10;;;;;;;;;;5004927;28;20045;-77
2023/01/10 11:12:49;;;;;;;1.75;1.13;;;;;;;;;;5008811;28;20072;-77
2023/01/10 11:15:34;;;;;;;1.08;0.90;;;;;;;;;;5008731;28;20543;-77
2023/01/10 11:18:11;;;;;;;2.35;1.00;;;;;;;;;;5007626;28;20033;-78
2023/01/10 11:20:40;;;;;;;1.88;0.80;;;;;;;;;;5007237;28;20080;-77
2023/01/10 11:23:06;;;;;;;2.17;0.75;;;;;;;;;;5011877;28;20032;-78
2023/01/10 11:25:33;;;;;;;3.67;1.20;;;;;;;;;;5009850;28;20060;-78
2023/01/10 11:28:00;;;;;;;2.75;1.10;;;;;;;;;;5008150;28;20030;-76
2023/01/10 11:30:28;;;;;;;2.63;1.30;;;;;;;;;;5009007;28;20029;-77
2023/01/10 11:32:55;;;;;;;3.35;1.17;;;;;;;;;;5007983;28;20033;-77
2023/01/10 11:35:23;;;;;;;1.45;1.00;;;;;;;;;;5017709;28;20029;-77
2023/01/10 11:38:01;;;;;;;2.10;0.93;;;;;;;;;;5010030;28;20030;-77
2023/01/10 11:40:28;;;;;;;1.50;1.10;;;;;;;;;;5008918;28;20091;-77
2023/01/10 11:42:58;;;;;;;1.48;1.05;;;;;;;;;;5008400;28;20057;-77
2023/01/10 11:45:26;;;;;;;1.90;1.00;;;;;;;;;;5007427;28;20670;-78
2023/01/10 11:48:11;;;;;;;1.17;1.08;;;;;;;;;;5009197;28;20025;-76
2023/01/10 11:50:39;;;;;;;1.67;0.93;;;;;;;;;;5004756;28;20034;-77
2023/01/10 11:53:06;;;;;;;1.45;0.88;;;;;;;;;;5008905;28;20117;-76
2023/01/10 11:55:33;;;;;;;2.75;1.27;;;;;;;;;;5005863;28;20072;-78
2023/01/10 11:58:02;;;;;;;2.33;1.10;;;;;;;;;;5007466;28;20026;-77
2023/01/10 12:00:33;;;;;;;1.90;1.00;;;;;;;;;;5006571;28;20133;-77
2023/01/10 12:03:00;;;;;;;2.72;0.80;;;;;;;;;;5006060;28;20466;-77
2023/01/10 12:05:26;;;;;;;2.33;1.08;;;;;;;;;;5006551;28;20030;-77
2023/01/10 12:07:58;;;;;;;2.47;1.10;;;;;;;;;;5008210;28;20026;-77
2023/01/10 12:10:25;;;;;;;3.35;1.00;;;;;;;;;;5006903;28;20727;-77
2023/01/10 12:12:56;;;;;;;2.10;0.85;;;;;;;;;;5004588;28;20037;-77
2023/01/10 12:15:22;;;;;;;1.27;0.85;;;;;;;;;;5005947;28;20029;-77
2023/01/10 12:17:48;;;;;;;2.45;1.00;;;;;;;;;;5001585;28;20037;-78
2023/01/10 12:20:15;;;;;;;1.40;0.90;;;;;;;;;;5008497;28;20099;-77
2023/01/10 12:22:42;;;;;;;3.00;0.95;;;;;;;;;;5006639;28;20034;-78
2023/01/10 12:25:28;;;;;;;1.83;0.88;;;;;;;;;;5005190;28;20049;-77
2023/01/10 12:27:56;;;;;;;3.90;0.82;;;;;;;;;;5008177;28;20030;-77
2023/01/10 12:30:32;;;;;;;1.67;1.00;;;;;;;;;;5006283;28;20117;-78
2023/01/10 12:33:00;;;;;;;1.08;0.80;;;;;;;;;;5006841;28;20036;-77
2023/01/10 12:35:36;;;;;;;1.08;0.90;;;;;;;;;;5004459;28;20504;-77
2023/01/10 12:38:06;;;;;;;1.08;0.77;;;;;;;;;;4988090;28;20392;-77
2023/01/10 12:40:35;;;;;;;2.45;0.93;;;;;;;;;;5008326;28;20103;-77
2023/01/10 12:45:52;;;;;;;2.63;0.90;;;;;;;;;;5003542;28;20053;-78
2023/01/10 12:48:23;;;;;;;1.30;0.80;;;;;;;;;;5005589;28;20026;-77
2023/01/10 12:50:59;;;;;;;2.00;0.95;;;;;;;;;;5002619;28;20493;-77
2023/01/10 12:53:28;;;;;;;0.50;0.50;;;;;;;;;;5003454;28;20041;-77
2023/01/10 12:55:56;;;;;;;1.00;0.60;;;;;;;;;;5006842;28;20030;-77
2023/01/10 12:58:23;;;;;;;1.80;0.63;;;;;;;;;;5009416;28;20812;-78
2023/01/10 13:00:52;;;;;;;1.58;0.88;;;;;;;;;;5006626;28;20026;-78
2023/01/10 13:03:20;;;;;;;3.13;0.75;;;;;;;;;;5008219;28;20480;-77
2023/01/10 13:05:48;;;;;;;0.95;0.63;;;;;;;;;;5010880;28;20022;-77
2023/01/10 13:08:15;;;;;;;1.15;0.80;;;;;;;;;;5005095;28;20507;-77
2023/01/10 13:10:42;;;;;;;2.42;0.80;;;;;;;;;;5010088;28;20038;-77
2023/01/10 13:13:17;;;;;;;0.70;0.70;;;;;;;;;;5010010;28;20076;-78
2023/01/10 13:16:04;;;;;;;0.80;0.80;;;;;;;;;;5010674;28;20034;-78
2023/01/10 13:18:30;;;;;;;1.85;0.93;;;;;;;;;;4973959;28;20091;-78
2023/01/10 13:21:12;;;;;;;0.80;0.68;;;;;;;;;;5008907;28;20032;-78
2023/01/10 13:23:47;;;;;;;2.42;0.80;;;;;;;;;;5008463;28;20539;-78
2023/01/10 13:26:13;;;;;;;2.40;0.80;;;;;;;;;;5005316;28;20063;-78
2023/01/10 13:28:41;;;;;;;3.47;0.85;;;;;;;;;;5007981;28;20097;-78
2023/01/10 13:31:20;;;;;;;1.30;0.82;;;;;;;;;;5009386;28;20714;-78
2023/01/10 13:33:46;;;;;;;2.63;1.17;;;;;;;;;;5007778;28;20041;-77
2023/01/10 13:36:17;;;;;;;1.85;1.10;;;;;;;;;;5009420;28;20034;-77
2023/01/10 13:38:43;;;;;;;;;;;;;;;;;;5007707;28;20029;-77
2023/01/10 13:43:17;;;;;;;0.60;0.60;;;;;;;;;;5005924;28;20676;-77
2023/01/10 13:44:00;;;;;;;3.10;1.27;;;;;;;;;;5005289;28;20030;-77
2023/01/10 13:46:26;;;;;;;0.90;0.80;;;;;;;;;;5008400;28;20125;-77
2023/01/10 13:48:59;;;;;;;0.75;0.75;;;;;;;;;;5010380;28;20026;-77
2023/01/10 13:51:25;;;;;;;2.40;0.88;;;;;;;;;;5005897;28;20442;-77
2023/01/10 13:54:02;;;;;;;1.27;0.93;;;;;;;;;;5009993;28;20037;-77
2023/01/10 13:56:29;;;;;;;1.23;0.70;;;;;;;;;;5006681;28;20033;-76
2023/01/10 14:04:26;;;;;;;0.73;0.70;;;;;;;;;;5007158;28;20053;-76
2023/01/10 14:06:53;;;;;;;1.08;0.98;;;;;;;;;;4989453;28;20038;-76
2023/01/10 14:09:19;;;;;;;1.70;0.80;;;;;;;;;;5009231;28;20030;-76
2023/01/10 14:11:49;;;;;;;1.15;0.73;;;;;;;;;;5006454;28;20044;-76
2023/01/10 14:14:23;;;;;;;2.15;0.70;;;;;;;;;;5006794;28;20121;-72
2023/01/10 14:16:51;;;;;;;0.50;0.50;;;;;;;;;;5007111;28;20036;-72
2023/01/10 14:19:22;;;;;;;0.50;0.47;;;;;;;;;;5004927;28;20033;-77
2023/01/10 14:21:48;;;;;;;;;;;;;;;;;;5008053;28;20034;-74
2023/01/10 14:24:26;;;;;;;0.90;0.80;;;;;;;;;;5005504;28;19971;-72
2023/01/10 14:26:54;;;;;;;1.38;1.02;;;;;;;;;;5011280;28;20546;-71
2023/01/10 14:29:20;;;;;;;0.70;0.70;;;;;;;;;;5008767;28;20028;-72
2023/01/10 14:31:48;;;;;;;3.33;0.90;;;;;;;;;;5005056;28;20369;-72
2023/01/10 14:34:20;;;;;;;1.10;1.00;;;;;;;;;;5004989;28;20065;-71
2023/01/10 14:36:53;;;;;;;1.38;0.95;;;;;;;;;;5006833;28;20042;-72
2023/01/10 14:39:19;;;;;;;1.45;0.80;;;;;;;;;;5000664;28;20132;-72
2023/01/10 14:41:46;;;;;;;1.67;1.00;;;;;;;;;;5001042;28;20032;-72
2023/01/10 14:44:18;;;;;;;5.10;1.10;;;;;;;;;;5005140;28;20037;-72
2023/01/10 14:46:52;;;;;;;1.00;0.82;;;;;;;;;;4999423;28;20057;-72
2023/01/10 14:49:17;;;;;;;2.10;1.15;;;;;;;;;;5009118;28;20491;-71
2023/01/10 14:51:43;;;;;;;1.73;0.80;;;;;;;;;;5005702;28;20063;-71
2023/01/10 14:54:13;;;;;;;3.42;1.08;;;;;;;;;;4999136;28;20087;-72
2023/01/10 14:56:43;;;;;;;4.63;1.13;;;;;;;;;;5000956;28;20034;-71
2023/01/10 14:59:22;;;;;;;3.10;0.75;;;;;;;;;;5006563;28;20033;-72
2023/01/10 15:01:49;;;;;;;2.58;0.75;;;;;;;;;;5005543;28;20052;-72
2023/01/10 15:04:16;;;;;;;4.68;1.08;;;;;;;;;;5004327;28;20084;-72
2023/01/10 15:06:53;;;;;;;0.88;0.88;;;;;;;;;;5005742;28;20029;-72
2023/01/10 15:09:19;;;;;;;2.47;0.75;;;;;;;;;;4997636;28;20037;-72
2023/01/10 15:11:45;;;;;;;4.47;0.60;;;;;;;;;;4995848;28;20033;-73
2023/01/10 15:14:16;;;;;;;1.17;0.80;;;;;;;;;;5002707;28;20083;-72